sensor_id;sensor_type;location;lat;lon;timestamp;temperature;humidity
262;DHT22;114;48.260;10.988;2023-06-22T00:00:58;19.20;64.20
262;DHT22;114;48.260;10.988;2023-06-22T00:03:25;19.20;64.10
262;DHT22;114;48.260;10.988;2023-06-22T00:05:51;19.20;64.10
262;DHT22;114;48.260;10.988;2023-06-22T00:08:18;19.20;64.10
262;DHT22;114;48.260;10.988;2023-06-22T00:10:44;19.20;64.00
262;DHT22;114;48.260;10.988;2023-06-22T00:13:11;19.20;63.20
262;DHT22;114;48.260;10.988;2023-06-22T00:15:38;19.20;63.20
262;DHT22;114;48.260;10.988;2023-06-22T00:18:08;19.20;62.40
262;DHT22;114;48.260;10.988;2023-06-22T00:20:34;19.20;61.80
262;DHT22;114;48.260;10.988;2023-06-22T00:23:03;19.10;61.80
262;DHT22;114;48.260;10.988;2023-06-22T00:25:37;19.00;62.50
262;DHT22;114;48.260;10.988;2023-06-22T00:28:04;19.00;62.80
262;DHT22;114;48.260;10.988;2023-06-22T00:30:30;19.00;63.50
262;DHT22;114;48.260;10.988;2023-06-22T00:32:56;19.00;63.80
262;DHT22;114;48.260;10.988;2023-06-22T00:35:22;19.00;63.40
262;DHT22;114;48.260;10.988;2023-06-22T00:37:48;19.00;63.50
262;DHT22;114;48.260;10.988;2023-06-22T00:40:14;18.90;63.70
262;DHT22;114;48.260;10.988;2023-06-22T00:42:40;18.90;63.80
262;DHT22;114;48.260;10.988;2023-06-22T00:45:07;18.90;63.80
262;DHT22;114;48.260;10.988;2023-06-22T00:47:36;18.90;63.00
262;DHT22;114;48.260;10.988;2023-06-22T00:50:05;18.90;63.70
262;DHT22;114;48.260;10.988;2023-06-22T00:52:32;18.80;63.50
262;DHT22;114;48.260;10.988;2023-06-22T00:55:02;18.80;63.60
262;DHT22;114;48.260;10.988;2023-06-22T00:57:28;18.80;63.70
262;DHT22;114;48.260;10.988;2023-06-22T00:59:54;18.80;63.70
262;DHT22;114;48.260;10.988;2023-06-22T01:02:20;18.70;63.70
262;DHT22;114;48.260;10.988;2023-06-22T01:04:46;18.80;63.60
262;DHT22;114;48.260;10.988;2023-06-22T01:07:38;18.80;63.60
262;DHT22;114;48.260;10.988;2023-06-22T01:12:47;18.70;63.60
262;DHT22;114;48.260;10.988;2023-06-22T01:15:21;18.80;62.70
262;DHT22;114;48.260;10.988;2023-06-22T01:17:50;18.80;62.90
262;DHT22;114;48.260;10.988;2023-06-22T01:20:17;18.80;62.50
262;DHT22;114;48.260;10.988;2023-06-22T01:25:57;18.70;63.60
262;DHT22;114;48.260;10.988;2023-06-22T01:30:57;18.60;65.70
262;DHT22;114;48.260;10.988;2023-06-22T01:33:34;18.50;67.00
262;DHT22;114;48.260;10.988;2023-06-22T01:36:01;18.50;66.90
262;DHT22;114;48.260;10.988;2023-06-22T01:38:29;18.40;67.10
262;DHT22;114;48.260;10.988;2023-06-22T01:40:56;18.50;67.40
262;DHT22;114;48.260;10.988;2023-06-22T01:43:25;18.40;68.20
262;DHT22;114;48.260;10.988;2023-06-22T01:45:52;18.30;68.70
262;DHT22;114;48.260;10.988;2023-06-22T01:48:19;18.30;70.00
262;DHT22;114;48.260;10.988;2023-06-22T01:50:45;18.30;70.60
262;DHT22;114;48.260;10.988;2023-06-22T01:53:11;18.20;72.60
262;DHT22;114;48.260;10.988;2023-06-22T01:55:36;18.10;73.60
262;DHT22;114;48.260;10.988;2023-06-22T01:58:02;18.00;75.40
262;DHT22;114;48.260;10.988;2023-06-22T02:00:31;17.90;77.60
262;DHT22;114;48.260;10.988;2023-06-22T02:03:22;17.90;79.80
262;DHT22;114;48.260;10.988;2023-06-22T02:06:08;17.90;80.60
262;DHT22;114;48.260;10.988;2023-06-22T02:08:41;17.90;81.50
262;DHT22;114;48.260;10.988;2023-06-22T02:11:12;17.90;81.40
262;DHT22;114;48.260;10.988;2023-06-22T02:13:38;17.90;81.60
262;DHT22;114;48.260;10.988;2023-06-22T02:16:10;17.80;82.60
262;DHT22;114;48.260;10.988;2023-06-22T02:18:36;17.80;83.80
262;DHT22;114;48.260;10.988;2023-06-22T02:21:02;17.70;84.20
262;DHT22;114;48.260;10.988;2023-06-22T02:23:28;17.70;85.00
262;DHT22;114;48.260;10.988;2023-06-22T02:25:54;17.70;85.50
262;DHT22;114;48.260;10.988;2023-06-22T02:28:20;17.70;86.10
262;DHT22;114;48.260;10.988;2023-06-22T02:30:45;17.60;86.60
262;DHT22;114;48.260;10.988;2023-06-22T02:33:11;17.60;87.10
262;DHT22;114;48.260;10.988;2023-06-22T02:35:37;17.50;88.20
262;DHT22;114;48.260;10.988;2023-06-22T02:38:03;17.40;89.20
262;DHT22;114;48.260;10.988;2023-06-22T02:40:30;17.40;90.30
262;DHT22;114;48.260;10.988;2023-06-22T02:42:56;17.30;90.40
262;DHT22;114;48.260;10.988;2023-06-22T02:45:23;17.30;91.00
262;DHT22;114;48.260;10.988;2023-06-22T02:47:49;17.20;91.50
262;DHT22;114;48.260;10.988;2023-06-22T02:50:15;17.30;91.90
262;DHT22;114;48.260;10.988;2023-06-22T02:52:41;17.20;92.00
262;DHT22;114;48.260;10.988;2023-06-22T02:55:07;17.20;92.30
262;DHT22;114;48.260;10.988;2023-06-22T02:57:33;17.20;92.80
262;DHT22;114;48.260;10.988;2023-06-22T02:59:59;17.30;93.10
262;DHT22;114;48.260;10.988;2023-06-22T03:02:25;17.30;92.80
262;DHT22;114;48.260;10.988;2023-06-22T03:04:52;17.30;92.70
262;DHT22;114;48.260;10.988;2023-06-22T03:07:20;17.30;92.70
262;DHT22;114;48.260;10.988;2023-06-22T03:09:45;17.30;92.90
262;DHT22;114;48.260;10.988;2023-06-22T03:12:11;17.20;93.30
262;DHT22;114;48.260;10.988;2023-06-22T03:14:37;17.30;93.50
262;DHT22;114;48.260;10.988;2023-06-22T03:17:04;17.30;93.60
262;DHT22;114;48.260;10.988;2023-06-22T03:19:31;17.30;93.60
262;DHT22;114;48.260;10.988;2023-06-22T03:22:00;17.30;93.50
262;DHT22;114;48.260;10.988;2023-06-22T03:24:26;17.30;93.90
262;DHT22;114;48.260;10.988;2023-06-22T03:26:55;17.30;93.60
262;DHT22;114;48.260;10.988;2023-06-22T03:29:20;17.30;93.60
262;DHT22;114;48.260;10.988;2023-06-22T03:31:46;17.20;93.80
262;DHT22;114;48.260;10.988;2023-06-22T03:34:11;17.20;93.90
262;DHT22;114;48.260;10.988;2023-06-22T03:36:37;17.20;94.20
262;DHT22;114;48.260;10.988;2023-06-22T03:39:03;17.20;94.30
262;DHT22;114;48.260;10.988;2023-06-22T03:41:29;17.30;94.40
262;DHT22;114;48.260;10.988;2023-06-22T03:43:54;17.30;94.30
262;DHT22;114;48.260;10.988;2023-06-22T03:46:20;17.30;94.00
262;DHT22;114;48.260;10.988;2023-06-22T03:48:46;17.40;93.90
262;DHT22;114;48.260;10.988;2023-06-22T03:51:11;17.40;93.60
262;DHT22;114;48.260;10.988;2023-06-22T03:53:37;17.40;93.50
262;DHT22;114;48.260;10.988;2023-06-22T03:56:03;17.50;93.40
262;DHT22;114;48.260;10.988;2023-06-22T03:58:28;17.50;93.50
262;DHT22;114;48.260;10.988;2023-06-22T04:00:58;17.60;93.20
262;DHT22;114;48.260;10.988;2023-06-22T04:03:25;17.60;93.10
262;DHT22;114;48.260;10.988;2023-06-22T04:05:51;17.60;92.20
262;DHT22;114;48.260;10.988;2023-06-22T04:08:17;17.60;92.10
262;DHT22;114;48.260;10.988;2023-06-22T04:10:43;17.70;92.00
262;DHT22;114;48.260;10.988;2023-06-22T04:13:09;17.70;91.90
262;DHT22;114;48.260;10.988;2023-06-22T04:15:35;17.80;91.30
262;DHT22;114;48.260;10.988;2023-06-22T04:18:01;17.80;91.20
262;DHT22;114;48.260;10.988;2023-06-22T04:20:26;17.80;91.10
262;DHT22;114;48.260;10.988;2023-06-22T04:22:55;17.90;90.70
262;DHT22;114;48.260;10.988;2023-06-22T04:25:21;17.90;90.60
262;DHT22;114;48.260;10.988;2023-06-22T04:27:47;18.00;90.40
262;DHT22;114;48.260;10.988;2023-06-22T04:30:14;18.10;90.30
262;DHT22;114;48.260;10.988;2023-06-22T04:32:42;18.10;89.90
262;DHT22;114;48.260;10.988;2023-06-22T04:35:08;18.20;89.40
262;DHT22;114;48.260;10.988;2023-06-22T04:37:34;18.30;88.20
262;DHT22;114;48.260;10.988;2023-06-22T04:39:59;18.40;87.50
262;DHT22;114;48.260;10.988;2023-06-22T04:42:28;18.50;85.50
262;DHT22;114;48.260;10.988;2023-06-22T04:44:54;18.50;84.10
262;DHT22;114;48.260;10.988;2023-06-22T04:47:20;18.60;83.50
262;DHT22;114;48.260;10.988;2023-06-22T04:49:46;18.60;82.60
262;DHT22;114;48.260;10.988;2023-06-22T04:52:13;18.70;80.80
262;DHT22;114;48.260;10.988;2023-06-22T04:54:40;18.70;81.80
262;DHT22;114;48.260;10.988;2023-06-22T04:57:13;18.80;80.00
262;DHT22;114;48.260;10.988;2023-06-22T04:59:40;18.90;78.00
262;DHT22;114;48.260;10.988;2023-06-22T05:02:07;18.90;76.70
262;DHT22;114;48.260;10.988;2023-06-22T05:04:34;19.00;76.80
262;DHT22;114;48.260;10.988;2023-06-22T05:07:02;19.10;74.60
262;DHT22;114;48.260;10.988;2023-06-22T05:09:28;19.10;73.50
262;DHT22;114;48.260;10.988;2023-06-22T05:11:54;19.20;73.60
262;DHT22;114;48.260;10.988;2023-06-22T05:14:22;19.30;73.10
262;DHT22;114;48.260;10.988;2023-06-22T05:16:49;19.30;70.00
262;DHT22;114;48.260;10.988;2023-06-22T05:19:14;19.40;69.50
262;DHT22;114;48.260;10.988;2023-06-22T05:21:40;19.50;68.40
262;DHT22;114;48.260;10.988;2023-06-22T05:24:06;19.50;65.90
262;DHT22;114;48.260;10.988;2023-06-22T05:26:33;19.70;62.90
262;DHT22;114;48.260;10.988;2023-06-22T05:29:00;19.70;61.80
262;DHT22;114;48.260;10.988;2023-06-22T05:31:26;19.80;58.40
262;DHT22;114;48.260;10.988;2023-06-22T05:33:54;19.90;56.70
262;DHT22;114;48.260;10.988;2023-06-22T05:36:20;20.00;54.80
262;DHT22;114;48.260;10.988;2023-06-22T05:38:47;20.10;53.70
262;DHT22;114;48.260;10.988;2023-06-22T05:41:13;20.10;54.60
262;DHT22;114;48.260;10.988;2023-06-22T05:43:40;20.20;53.10
262;DHT22;114;48.260;10.988;2023-06-22T05:46:05;20.30;52.30
262;DHT22;114;48.260;10.988;2023-06-22T05:48:31;20.50;51.40
262;DHT22;114;48.260;10.988;2023-06-22T05:50:57;20.70;49.40
262;DHT22;114;48.260;10.988;2023-06-22T05:53:23;20.80;45.90
262;DHT22;114;48.260;10.988;2023-06-22T05:55:49;21.00;45.00
262;DHT22;114;48.260;10.988;2023-06-22T05:58:14;21.10;41.60
262;DHT22;114;48.260;10.988;2023-06-22T06:00:41;21.30;40.80
262;DHT22;114;48.260;10.988;2023-06-22T06:03:07;21.40;33.20
262;DHT22;114;48.260;10.988;2023-06-22T06:05:33;21.50;34.00
262;DHT22;114;48.260;10.988;2023-06-22T06:08:04;21.70;32.00
262;DHT22;114;48.260;10.988;2023-06-22T06:10:31;21.80;30.20
262;DHT22;114;48.260;10.988;2023-06-22T06:12:57;21.80;29.20
262;DHT22;114;48.260;10.988;2023-06-22T06:15:23;21.90;29.20
262;DHT22;114;48.260;10.988;2023-06-22T06:17:50;22.00;26.80
262;DHT22;114;48.260;10.988;2023-06-22T06:20:19;22.20;25.00
262;DHT22;114;48.260;10.988;2023-06-22T06:22:46;22.10;23.00
262;DHT22;114;48.260;10.988;2023-06-22T06:25:12;22.00;23.70
262;DHT22;114;48.260;10.988;2023-06-22T06:27:47;22.00;25.00
262;DHT22;114;48.260;10.988;2023-06-22T06:30:14;22.00;26.30
262;DHT22;114;48.260;10.988;2023-06-22T06:32:41;22.10;26.20
262;DHT22;114;48.260;10.988;2023-06-22T06:35:08;22.30;26.20
262;DHT22;114;48.260;10.988;2023-06-22T06:37:39;22.60;22.50
262;DHT22;114;48.260;10.988;2023-06-22T06:40:09;22.60;19.80
262;DHT22;114;48.260;10.988;2023-06-22T06:42:42;22.60;19.30
262;DHT22;114;48.260;10.988;2023-06-22T06:45:11;22.60;19.40
262;DHT22;114;48.260;10.988;2023-06-22T06:47:37;22.70;20.00
262;DHT22;114;48.260;10.988;2023-06-22T06:50:04;22.80;20.10
262;DHT22;114;48.260;10.988;2023-06-22T06:52:30;22.90;18.70
262;DHT22;114;48.260;10.988;2023-06-22T06:54:56;23.10;16.70
262;DHT22;114;48.260;10.988;2023-06-22T06:57:21;23.10;16.60
262;DHT22;114;48.260;10.988;2023-06-22T06:59:48;23.30;15.90
262;DHT22;114;48.260;10.988;2023-06-22T07:02:15;23.40;13.60
262;DHT22;114;48.260;10.988;2023-06-22T07:04:41;23.40;14.10
262;DHT22;114;48.260;10.988;2023-06-22T07:07:07;23.50;15.30
262;DHT22;114;48.260;10.988;2023-06-22T07:09:32;23.70;12.40
262;DHT22;114;48.260;10.988;2023-06-22T07:11:58;23.80;10.60
262;DHT22;114;48.260;10.988;2023-06-22T07:14:24;23.90;12.00
262;DHT22;114;48.260;10.988;2023-06-22T07:16:49;24.20;9.10
262;DHT22;114;48.260;10.988;2023-06-22T07:19:15;24.10;8.20
262;DHT22;114;48.260;10.988;2023-06-22T07:21:41;24.00;9.00
262;DHT22;114;48.260;10.988;2023-06-22T07:24:07;24.30;8.40
262;DHT22;114;48.260;10.988;2023-06-22T07:26:33;24.40;8.50
262;DHT22;114;48.260;10.988;2023-06-22T07:28:59;24.60;5.10
262;DHT22;114;48.260;10.988;2023-06-22T07:31:25;24.70;3.60
262;DHT22;114;48.260;10.988;2023-06-22T07:33:51;24.60;2.80
262;DHT22;114;48.260;10.988;2023-06-22T07:36:18;24.70;4.10
262;DHT22;114;48.260;10.988;2023-06-22T07:38:44;24.70;4.80
262;DHT22;114;48.260;10.988;2023-06-22T07:41:10;25.00;1.00
262;DHT22;114;48.260;10.988;2023-06-22T07:43:36;25.20;1.00
262;DHT22;114;48.260;10.988;2023-06-22T07:46:05;25.40;1.00
262;DHT22;114;48.260;10.988;2023-06-22T07:48:31;25.40;1.00
262;DHT22;114;48.260;10.988;2023-06-22T07:50:57;25.40;1.00
262;DHT22;114;48.260;10.988;2023-06-22T07:53:23;25.40;1.00
262;DHT22;114;48.260;10.988;2023-06-22T07:55:50;25.60;1.00
262;DHT22;114;48.260;10.988;2023-06-22T07:58:15;25.60;1.00
262;DHT22;114;48.260;10.988;2023-06-22T08:00:41;25.80;1.00
262;DHT22;114;48.260;10.988;2023-06-22T08:03:07;26.00;1.00
262;DHT22;114;48.260;10.988;2023-06-22T08:05:33;26.10;1.00
262;DHT22;114;48.260;10.988;2023-06-22T08:07:59;26.30;1.00
262;DHT22;114;48.260;10.988;2023-06-22T08:10:25;26.40;1.00
262;DHT22;114;48.260;10.988;2023-06-22T08:12:51;26.60;1.00
262;DHT22;114;48.260;10.988;2023-06-22T08:15:18;26.70;1.00
262;DHT22;114;48.260;10.988;2023-06-22T08:17:44;26.90;1.00
262;DHT22;114;48.260;10.988;2023-06-22T08:20:11;26.80;1.00
262;DHT22;114;48.260;10.988;2023-06-22T08:22:38;26.70;1.00
262;DHT22;114;48.260;10.988;2023-06-22T08:25:04;26.90;1.00
262;DHT22;114;48.260;10.988;2023-06-22T08:27:31;26.90;1.00
262;DHT22;114;48.260;10.988;2023-06-22T08:30:00;26.50;1.00
262;DHT22;114;48.260;10.988;2023-06-22T08:32:29;26.40;1.00
262;DHT22;114;48.260;10.988;2023-06-22T08:34:56;26.50;1.00
262;DHT22;114;48.260;10.988;2023-06-22T08:37:22;26.70;1.00
262;DHT22;114;48.260;10.988;2023-06-22T08:40:06;26.90;1.00
262;DHT22;114;48.260;10.988;2023-06-22T08:42:34;26.90;1.00
262;DHT22;114;48.260;10.988;2023-06-22T08:45:00;27.20;1.00
262;DHT22;114;48.260;10.988;2023-06-22T08:47:27;27.40;1.00
262;DHT22;114;48.260;10.988;2023-06-22T08:49:53;27.30;1.00
262;DHT22;114;48.260;10.988;2023-06-22T08:52:19;27.30;1.00
262;DHT22;114;48.260;10.988;2023-06-22T08:54:45;27.30;1.00
262;DHT22;114;48.260;10.988;2023-06-22T08:57:11;27.20;1.00
262;DHT22;114;48.260;10.988;2023-06-22T08:59:37;27.10;1.00
262;DHT22;114;48.260;10.988;2023-06-22T09:02:03;27.10;1.00
262;DHT22;114;48.260;10.988;2023-06-22T09:04:28;27.00;1.00
262;DHT22;114;48.260;10.988;2023-06-22T09:06:54;27.10;1.00
262;DHT22;114;48.260;10.988;2023-06-22T09:09:21;27.40;1.00
262;DHT22;114;48.260;10.988;2023-06-22T09:11:47;27.70;1.00
262;DHT22;114;48.260;10.988;2023-06-22T09:14:13;27.80;1.00
262;DHT22;114;48.260;10.988;2023-06-22T09:16:38;27.90;1.00
262;DHT22;114;48.260;10.988;2023-06-22T09:19:04;28.00;1.00
262;DHT22;114;48.260;10.988;2023-06-22T09:21:30;28.10;1.00
262;DHT22;114;48.260;10.988;2023-06-22T09:23:56;28.00;1.00
262;DHT22;114;48.260;10.988;2023-06-22T09:26:22;28.10;1.00
262;DHT22;114;48.260;10.988;2023-06-22T09:28:50;28.00;1.00
262;DHT22;114;48.260;10.988;2023-06-22T09:31:16;28.00;1.00
262;DHT22;114;48.260;10.988;2023-06-22T09:33:42;28.20;1.00
262;DHT22;114;48.260;10.988;2023-06-22T09:36:08;28.60;1.00
262;DHT22;114;48.260;10.988;2023-06-22T09:38:37;28.70;1.00
262;DHT22;114;48.260;10.988;2023-06-22T09:41:04;29.00;1.00
262;DHT22;114;48.260;10.988;2023-06-22T09:43:32;28.80;1.00
262;DHT22;114;48.260;10.988;2023-06-22T09:45:58;28.80;1.00
262;DHT22;114;48.260;10.988;2023-06-22T09:48:23;28.70;1.00
262;DHT22;114;48.260;10.988;2023-06-22T09:50:50;29.00;1.00
262;DHT22;114;48.260;10.988;2023-06-22T09:53:16;29.00;1.00
262;DHT22;114;48.260;10.988;2023-06-22T09:55:42;29.40;1.00
262;DHT22;114;48.260;10.988;2023-06-22T09:58:08;29.60;1.00
262;DHT22;114;48.260;10.988;2023-06-22T10:00:34;29.60;1.00
262;DHT22;114;48.260;10.988;2023-06-22T10:02:59;29.80;1.00
262;DHT22;114;48.260;10.988;2023-06-22T10:05:25;29.60;1.00
262;DHT22;114;48.260;10.988;2023-06-22T10:07:51;30.10;1.00
262;DHT22;114;48.260;10.988;2023-06-22T10:10:17;30.20;1.00
262;DHT22;114;48.260;10.988;2023-06-22T10:12:48;30.50;1.00
262;DHT22;114;48.260;10.988;2023-06-22T10:15:19;30.90;1.00
262;DHT22;114;48.260;10.988;2023-06-22T10:17:46;31.40;1.00
262;DHT22;114;48.260;10.988;2023-06-22T10:20:13;32.20;1.00
262;DHT22;114;48.260;10.988;2023-06-22T10:22:44;32.30;1.00
262;DHT22;114;48.260;10.988;2023-06-22T10:25:10;32.70;1.00
262;DHT22;114;48.260;10.988;2023-06-22T10:27:36;32.50;1.00
262;DHT22;114;48.260;10.988;2023-06-22T10:30:06;31.60;1.00
262;DHT22;114;48.260;10.988;2023-06-22T10:32:32;31.50;1.00
262;DHT22;114;48.260;10.988;2023-06-22T10:34:58;31.50;1.00
262;DHT22;114;48.260;10.988;2023-06-22T10:37:25;31.70;1.00
262;DHT22;114;48.260;10.988;2023-06-22T10:39:50;31.70;1.00
262;DHT22;114;48.260;10.988;2023-06-22T10:42:16;31.60;1.00
262;DHT22;114;48.260;10.988;2023-06-22T10:44:42;31.90;1.00
262;DHT22;114;48.260;10.988;2023-06-22T10:47:10;32.10;1.00
262;DHT22;114;48.260;10.988;2023-06-22T10:49:39;32.40;1.00
262;DHT22;114;48.260;10.988;2023-06-22T10:52:07;32.60;1.00
262;DHT22;114;48.260;10.988;2023-06-22T10:54:33;32.80;1.00
262;DHT22;114;48.260;10.988;2023-06-22T10:57:00;32.80;1.00
262;DHT22;114;48.260;10.988;2023-06-22T10:59:25;32.80;1.00
262;DHT22;114;48.260;10.988;2023-06-22T11:01:53;32.90;1.00
262;DHT22;114;48.260;10.988;2023-06-22T11:04:18;32.80;1.00
262;DHT22;114;48.260;10.988;2023-06-22T11:06:44;32.90;1.00
262;DHT22;114;48.260;10.988;2023-06-22T11:09:10;33.30;1.00
262;DHT22;114;48.260;10.988;2023-06-22T11:11:35;33.40;1.00
262;DHT22;114;48.260;10.988;2023-06-22T11:14:01;33.40;1.00
262;DHT22;114;48.260;10.988;2023-06-22T11:16:27;33.60;1.00
262;DHT22;114;48.260;10.988;2023-06-22T11:18:53;33.80;1.00
262;DHT22;114;48.260;10.988;2023-06-22T11:21:19;34.00;1.00
262;DHT22;114;48.260;10.988;2023-06-22T11:23:45;34.30;1.00
262;DHT22;114;48.260;10.988;2023-06-22T11:26:11;34.50;1.00
262;DHT22;114;48.260;10.988;2023-06-22T11:28:37;34.40;1.00
262;DHT22;114;48.260;10.988;2023-06-22T11:31:03;34.30;1.00
262;DHT22;114;48.260;10.988;2023-06-22T11:33:28;34.40;1.00
262;DHT22;114;48.260;10.988;2023-06-22T11:35:54;34.80;1.00
262;DHT22;114;48.260;10.988;2023-06-22T11:38:22;35.00;1.00
262;DHT22;114;48.260;10.988;2023-06-22T11:40:47;35.20;1.00
262;DHT22;114;48.260;10.988;2023-06-22T11:43:13;35.60;1.00
262;DHT22;114;48.260;10.988;2023-06-22T11:45:40;35.90;1.00
262;DHT22;114;48.260;10.988;2023-06-22T11:48:06;35.90;1.00
262;DHT22;114;48.260;10.988;2023-06-22T11:50:31;35.70;1.00
262;DHT22;114;48.260;10.988;2023-06-22T11:53:04;35.30;1.00
262;DHT22;114;48.260;10.988;2023-06-22T11:55:30;35.10;1.00
262;DHT22;114;48.260;10.988;2023-06-22T11:57:57;35.10;1.00
262;DHT22;114;48.260;10.988;2023-06-22T12:00:29;35.10;1.00
262;DHT22;114;48.260;10.988;2023-06-22T12:02:55;35.50;1.00
262;DHT22;114;48.260;10.988;2023-06-22T12:05:22;35.70;1.00
262;DHT22;114;48.260;10.988;2023-06-22T12:07:48;35.50;1.00
262;DHT22;114;48.260;10.988;2023-06-22T12:10:14;35.40;1.00
262;DHT22;114;48.260;10.988;2023-06-22T12:12:40;35.50;1.00
262;DHT22;114;48.260;10.988;2023-06-22T12:15:06;35.70;1.00
262;DHT22;114;48.260;10.988;2023-06-22T12:17:33;35.80;1.00
262;DHT22;114;48.260;10.988;2023-06-22T12:19:59;36.30;1.00
262;DHT22;114;48.260;10.988;2023-06-22T12:22:25;36.60;1.00
262;DHT22;114;48.260;10.988;2023-06-22T12:24:53;36.80;1.00
262;DHT22;114;48.260;10.988;2023-06-22T12:27:19;36.70;1.00
262;DHT22;114;48.260;10.988;2023-06-22T12:29:46;36.50;1.00
262;DHT22;114;48.260;10.988;2023-06-22T12:32:11;36.80;1.00
262;DHT22;114;48.260;10.988;2023-06-22T12:34:42;37.10;1.00
262;DHT22;114;48.260;10.988;2023-06-22T12:37:08;37.50;1.00
262;DHT22;114;48.260;10.988;2023-06-22T12:39:34;37.90;1.00
262;DHT22;114;48.260;10.988;2023-06-22T12:42:00;38.60;1.00
262;DHT22;114;48.260;10.988;2023-06-22T12:44:25;39.60;1.00
262;DHT22;114;48.260;10.988;2023-06-22T12:46:51;39.30;1.00
262;DHT22;114;48.260;10.988;2023-06-22T12:49:17;39.90;1.00
262;DHT22;114;48.260;10.988;2023-06-22T12:51:44;40.20;1.00
262;DHT22;114;48.260;10.988;2023-06-22T12:54:10;40.20;1.00
262;DHT22;114;48.260;10.988;2023-06-22T12:56:37;40.50;1.00
262;DHT22;114;48.260;10.988;2023-06-22T12:59:03;40.20;1.00
262;DHT22;114;48.260;10.988;2023-06-22T13:01:30;40.00;1.00
262;DHT22;114;48.260;10.988;2023-06-22T13:03:56;39.60;1.00
262;DHT22;114;48.260;10.988;2023-06-22T13:06:22;39.90;1.00
262;DHT22;114;48.260;10.988;2023-06-22T13:08:47;40.00;1.00
262;DHT22;114;48.260;10.988;2023-06-22T13:11:13;40.20;1.00
262;DHT22;114;48.260;10.988;2023-06-22T13:13:40;40.90;1.00
262;DHT22;114;48.260;10.988;2023-06-22T13:16:06;41.00;1.00
262;DHT22;114;48.260;10.988;2023-06-22T13:18:32;41.50;1.00
262;DHT22;114;48.260;10.988;2023-06-22T13:20:59;41.80;1.00
262;DHT22;114;48.260;10.988;2023-06-22T13:23:25;42.30;1.00
262;DHT22;114;48.260;10.988;2023-06-22T13:25:51;42.40;1.00
262;DHT22;114;48.260;10.988;2023-06-22T13:28:17;43.00;1.00
262;DHT22;114;48.260;10.988;2023-06-22T13:30:43;43.40;1.00
262;DHT22;114;48.260;10.988;2023-06-22T13:33:11;43.50;1.00
262;DHT22;114;48.260;10.988;2023-06-22T13:35:37;44.00;1.00
262;DHT22;114;48.260;10.988;2023-06-22T13:38:03;44.40;1.00
262;DHT22;114;48.260;10.988;2023-06-22T13:40:29;44.90;1.00
262;DHT22;114;48.260;10.988;2023-06-22T13:42:56;43.80;1.00
262;DHT22;114;48.260;10.988;2023-06-22T13:45:22;43.30;1.00
262;DHT22;114;48.260;10.988;2023-06-22T13:47:48;43.50;1.00
262;DHT22;114;48.260;10.988;2023-06-22T13:50:14;42.30;1.00
262;DHT22;114;48.260;10.988;2023-06-22T13:52:40;43.10;1.00
262;DHT22;114;48.260;10.988;2023-06-22T13:55:06;43.30;1.00
262;DHT22;114;48.260;10.988;2023-06-22T13:57:33;43.30;1.00
262;DHT22;114;48.260;10.988;2023-06-22T13:59:59;43.60;1.00
262;DHT22;114;48.260;10.988;2023-06-22T14:02:28;44.80;1.00
262;DHT22;114;48.260;10.988;2023-06-22T14:04:54;45.20;1.00
262;DHT22;114;48.260;10.988;2023-06-22T14:07:19;44.90;1.00
262;DHT22;114;48.260;10.988;2023-06-22T14:09:46;44.40;1.00
262;DHT22;114;48.260;10.988;2023-06-22T14:12:12;43.10;1.00
262;DHT22;114;48.260;10.988;2023-06-22T14:14:38;43.80;1.00
262;DHT22;114;48.260;10.988;2023-06-22T14:17:04;44.50;1.00
262;DHT22;114;48.260;10.988;2023-06-22T14:19:30;45.10;1.00
262;DHT22;114;48.260;10.988;2023-06-22T14:21:56;45.10;1.00
262;DHT22;114;48.260;10.988;2023-06-22T14:24:24;43.40;1.00
262;DHT22;114;48.260;10.988;2023-06-22T14:26:50;43.50;1.00
262;DHT22;114;48.260;10.988;2023-06-22T14:29:16;44.70;1.00
262;DHT22;114;48.260;10.988;2023-06-22T14:31:45;44.40;1.00
262;DHT22;114;48.260;10.988;2023-06-22T14:34:11;45.40;1.00
262;DHT22;114;48.260;10.988;2023-06-22T14:36:37;46.20;1.00
262;DHT22;114;48.260;10.988;2023-06-22T14:39:02;46.00;1.00
262;DHT22;114;48.260;10.988;2023-06-22T14:41:32;45.50;1.00
262;DHT22;114;48.260;10.988;2023-06-22T14:43:58;45.20;1.00
262;DHT22;114;48.260;10.988;2023-06-22T14:46:23;45.80;1.00
262;DHT22;114;48.260;10.988;2023-06-22T14:48:49;45.40;1.00
262;DHT22;114;48.260;10.988;2023-06-22T14:51:15;44.80;1.00
262;DHT22;114;48.260;10.988;2023-06-22T14:53:42;44.40;1.00
262;DHT22;114;48.260;10.988;2023-06-22T14:56:07;45.50;1.00
262;DHT22;114;48.260;10.988;2023-06-22T14:58:33;45.40;1.00
262;DHT22;114;48.260;10.988;2023-06-22T15:01:00;45.50;1.00
262;DHT22;114;48.260;10.988;2023-06-22T15:03:26;45.50;1.00
262;DHT22;114;48.260;10.988;2023-06-22T15:05:54;46.00;1.00
262;DHT22;114;48.260;10.988;2023-06-22T15:08:20;46.60;1.00
262;DHT22;114;48.260;10.988;2023-06-22T15:10:46;45.60;1.00
262;DHT22;114;48.260;10.988;2023-06-22T15:13:12;45.90;1.00
262;DHT22;114;48.260;10.988;2023-06-22T15:15:38;45.60;1.00
262;DHT22;114;48.260;10.988;2023-06-22T15:18:04;46.20;1.00
262;DHT22;114;48.260;10.988;2023-06-22T15:20:30;45.00;1.00
262;DHT22;114;48.260;10.988;2023-06-22T15:22:57;45.30;1.00
262;DHT22;114;48.260;10.988;2023-06-22T15:25:23;45.40;1.00
262;DHT22;114;48.260;10.988;2023-06-22T15:27:49;44.60;1.00
262;DHT22;114;48.260;10.988;2023-06-22T15:30:15;43.80;1.00
262;DHT22;114;48.260;10.988;2023-06-22T15:32:44;44.10;1.00
262;DHT22;114;48.260;10.988;2023-06-22T15:35:10;43.40;1.00
262;DHT22;114;48.260;10.988;2023-06-22T15:37:36;42.90;1.00
262;DHT22;114;48.260;10.988;2023-06-22T15:40:02;42.30;1.00
262;DHT22;114;48.260;10.988;2023-06-22T15:42:28;42.80;1.00
262;DHT22;114;48.260;10.988;2023-06-22T15:44:54;42.60;1.00
262;DHT22;114;48.260;10.988;2023-06-22T15:47:20;41.20;1.00
262;DHT22;114;48.260;10.988;2023-06-22T15:49:50;40.30;1.00
262;DHT22;114;48.260;10.988;2023-06-22T15:52:17;40.30;1.00
262;DHT22;114;48.260;10.988;2023-06-22T15:54:48;40.20;1.00
262;DHT22;114;48.260;10.988;2023-06-22T15:57:17;39.60;1.00
262;DHT22;114;48.260;10.988;2023-06-22T15:59:42;38.80;1.00
262;DHT22;114;48.260;10.988;2023-06-22T16:02:09;38.50;1.00
262;DHT22;114;48.260;10.988;2023-06-22T16:04:35;38.30;1.00
262;DHT22;114;48.260;10.988;2023-06-22T16:07:01;38.00;1.00
262;DHT22;114;48.260;10.988;2023-06-22T16:09:28;37.40;1.00
262;DHT22;114;48.260;10.988;2023-06-22T16:11:56;36.90;1.00
262;DHT22;114;48.260;10.988;2023-06-22T16:14:21;37.10;1.00
262;DHT22;114;48.260;10.988;2023-06-22T16:16:48;37.30;1.00
262;DHT22;114;48.260;10.988;2023-06-22T16:19:14;37.60;1.00
262;DHT22;114;48.260;10.988;2023-06-22T16:21:43;37.20;1.00
262;DHT22;114;48.260;10.988;2023-06-22T16:24:09;35.70;1.00
262;DHT22;114;48.260;10.988;2023-06-22T16:26:39;34.50;1.00
262;DHT22;114;48.260;10.988;2023-06-22T16:29:06;33.30;1.00
262;DHT22;114;48.260;10.988;2023-06-22T16:31:32;32.60;1.00